USCCUSSS

Guest
Details From USCC - Balandino
To USSS - Koltsovo
Flight Number -
Tags Generated
Created
Modified
Stats Distance 89 nm / 165 km
Max Altitude 0 ft / 0 m
Waypoints 2
Social Downloads 1
Likes 0
Share VATSIM

Download

Looking for another format? Having issues loading an existing format? Contact us
Advertisement - Login to hide

Notes

Generated

Route

USCC USSS

ID Type Via Altitude Latitude Longitude Leg Dist Tot Dist Heading (true) Name
O USCC APT - 0 ft / 0 m 55.30921˚ 61.47889˚ - 0 nm - -
O USSS APT - 0 ft / 0 m 56.74481˚ 60.78140˚ 89 nm 89 nm 345° / 345° -

Altitude Profile

Advertisement - Login to hide

USCC

Details ICAO USCC (CEK)
Name BALANDINO
Region Russia
Timezone Asia/Yekaterinburg (UTC+5.0)
Stats Elevation 769 ft / 234 m (AMSL)
Location 55.305843° 61.503320°
Runways 1
Magnetic Variation 13.793° E

METAR

USCC 122330Z 14002MPS 3700 BR FU SCT010 M19/M21 Q1037 R09/450250 TEMPO 0300 FZFG VV002 RMK QFE757

Decode

TAF

TAF USCC 122000Z 1221/1321 18003MPS 3100 BR FU SCT011 TEMPO 1221/1306 12003MPS 0300 FZFG VV002 FM130600 18004MPS 6000 SCT015

Decode

Departure Runways

ID Width Length Bearing (true) Bearing (mag) Surface Threshold Offset Overrun Length
09 197 ft / 60 m 10,443 ft / 3,183 m 103.59° 89.80° Concrete 0 ft / 0 m 230 ft / 70 m
27 197 ft / 60 m 10,443 ft / 3,183 m 283.63° 269.84° Concrete 0 ft / 0 m 230 ft / 70 m

USSS

Details ICAO USSS (SVX)
Name KOLTSOVO
Region Russia
Timezone Asia/Yekaterinburg (UTC+5.0)
Stats Elevation 764 ft / 233 m (AMSL)
Location 56.743108° 60.802727°
Runways 2
Magnetic Variation 14.863° E

METAR

USSS 122330Z 00000MPS 5000 BR NSC M25/M27 Q1036 R26R/420250 NOSIG RMK QFE756/1008

Decode

TAF

TAF USSS 121957Z 1221/1321 16003MPS 2100 BR SCT011 TEMPO 1221/1306 0300 FG VV002 BECMG 1306/1308 5000 BR SCT015

Decode

Destination Runways

ID Width Length Bearing (true) Bearing (mag) Surface Threshold Offset Overrun Length
08L 148 ft / 45 m 8,172 ft / 2,491 m 90.13° 75.27° Asphalt 0 ft / 0 m 230 ft / 70 m
08R 174 ft / 53 m 9,861 ft / 3,006 m 94.09° 79.23° Concrete 246 ft / 75 m 165 ft / 50 m
26L 174 ft / 53 m 9,861 ft / 3,006 m 274.14° 259.28° Concrete 1,066 ft / 325 m 165 ft / 50 m
26R 148 ft / 45 m 8,172 ft / 2,491 m 270.17° 255.31° Asphalt 0 ft / 0 m 220 ft / 67 m

Approach Navaids

Runway Type Ident Frequency Range Bearing (true) Bearing (mag) Slope Elevation
08R Localiser IEL 109.90 MHz 18 nm / 33 km 94.03° 79.17° - 764 ft / 233 m (AMSL)
08R Glidescope IEL 109.90 MHz 10 nm / 19 km 94.11° 79.25° 2.70° 764 ft / 233 m (AMSL)
26L Localiser IED 109.50 MHz 18 nm / 33 km 272.26° 257.40° - 764 ft / 233 m (AMSL)
26L Glidescope IED 109.50 MHz 10 nm / 19 km 274.12° 259.25° 2.80° 764 ft / 233 m (AMSL)
26R Localiser IKU 110.50 MHz 18 nm / 33 km 270.48° 255.62° - 764 ft / 233 m (AMSL)
26R Glidescope IKU 110.50 MHz 10 nm / 19 km 270.15° 255.29° 3.00° 764 ft / 233 m (AMSL)

Popular Alternatives